Time;durP1;ratioP1;P1;durP2;ratioP2;P2;SDS_P1;SDS_P2;PMS_P1;PMS_P2;Temp;Humidity;BMP_temperature;BMP_pressure;BME280_temperature;BME280_humidity;BME280_pressure;Samples;Min_cycle;Max_cycle;Signal;HPM_P1;HPM_P2
2021/01/09 00:00:12;;;;;;;1.33;1.23;;;;;;;1.79;100.00;97303.53;5014347;28;20503;-83
2021/01/09 00:02:39;;;;;;;3.40;2.35;;;;;;;1.76;100.00;97307.16;5030654;28;20038;-83
2021/01/09 00:05:05;;;;;;;7.20;2.72;;;;;;;1.78;100.00;97291.28;5014246;28;20044;-83
2021/01/09 00:07:31;;;;;;;0.93;0.93;;;;;;;1.79;100.00;97296.50;5024201;28;20068;-82
2021/01/09 00:09:58;;;;;;;2.33;1.70;;;;;;;1.83;100.00;97287.59;5034162;28;20025;-83
2021/01/09 00:12:23;;;;;;;14.45;2.47;;;;;;;1.77;100.00;97292.19;5049405;28;20409;-82
2021/01/09 00:14:49;;;;;;;4.57;3.70;;;;;;;1.80;100.00;97297.38;5042915;28;20032;-83
2021/01/09 00:17:14;;;;;;;7.50;2.35;;;;;;;1.80;100.00;97308.78;5025748;28;20459;-83
2021/01/09 00:19:40;;;;;;;1.15;1.15;;;;;;;1.84;100.00;97317.47;5022045;28;20041;-83
2021/01/09 00:22:07;;;;;;;1.08;0.98;;;;;;;1.85;100.00;97311.25;5014019;28;20414;-81
2021/01/09 00:24:32;;;;;;;1.90;1.15;;;;;;;1.80;100.00;97315.81;5013863;28;20037;-81
2021/01/09 00:26:58;;;;;;;0.70;0.70;;;;;;;1.86;100.00;97315.63;5030576;28;20021;-82
2021/01/09 00:29:23;;;;;;;1.85;1.42;;;;;;;1.87;100.00;97312.09;5039015;28;20029;-82
2021/01/09 00:31:49;;;;;;;0.50;0.50;;;;;;;1.87;100.00;97312.97;5049966;28;20021;-82
2021/01/09 00:34:14;;;;;;;1.20;1.10;;;;;;;1.85;100.00;97322.69;5017864;28;20029;-82
2021/01/09 00:36:47;;;;;;;1.48;1.38;;;;;;;1.86;100.00;97323.53;5046683;28;20036;-82
2021/01/09 00:39:13;;;;;;;1.35;0.93;;;;;;;1.87;100.00;97346.38;5014036;28;20091;-82
2021/01/09 00:41:39;;;;;;;2.08;1.70;;;;;;;1.87;100.00;97346.38;5032390;28;20566;-82
2021/01/09 00:44:06;;;;;;;0.90;0.90;;;;;;;1.82;100.00;97333.31;5033737;28;20024;-82
2021/01/09 00:46:32;;;;;;;3.13;2.47;;;;;;;1.69;100.00;97344.31;5024018;28;20117;-82
2021/01/09 00:48:58;;;;;;;12.10;3.83;;;;;;;1.73;100.00;97340.63;5014000;28;20040;-81
2021/01/09 00:51:24;;;;;;;6.15;2.65;;;;;;;1.74;100.00;97339.75;5021771;28;20025;-81
2021/01/09 00:53:49;;;;;;;2.78;1.70;;;;;;;1.75;100.00;97349.38;5037993;28;20039;-82
2021/01/09 00:56:15;;;;;;;7.30;2.85;;;;;;;1.81;100.00;97347.44;5029207;28;20037;-82
2021/01/09 00:58:41;;;;;;;11.68;2.20;;;;;;;1.73;100.00;97341.50;5030630;28;20488;-83
2021/01/09 01:01:07;;;;;;;1.17;1.17;;;;;;;1.72;100.00;97336.31;5013540;28;20037;-83
2021/01/09 01:03:34;;;;;;;1.02;1.02;;;;;;;1.80;100.00;97337.78;5021604;28;20033;-83
2021/01/09 01:05:59;;;;;;;0.90;0.90;;;;;;;1.70;100.00;97327.56;5013712;28;20053;-82
2021/01/09 01:08:25;;;;;;;1.00;0.90;;;;;;;1.74;100.00;97326.56;5013808;28;20083;-83
2021/01/09 01:10:54;;;;;;;0.68;0.68;;;;;;;1.72;100.00;97315.22;5022121;28;20026;-82
2021/01/09 01:13:20;;;;;;;0.57;0.57;;;;;;;1.72;100.00;97325.75;5030281;28;20022;-82
2021/01/09 01:15:46;;;;;;;0.15;0.15;;;;;;;1.73;100.00;97320.41;5041130;28;20057;-82
2021/01/09 01:18:11;;;;;;;0.65;0.65;;;;;;;1.77;100.00;97319.44;5033342;28;20064;-82
2021/01/09 01:20:37;;;;;;;0.60;0.60;;;;;;;1.75;100.00;97329.16;5023327;28;20156;-81
2021/01/09 01:23:03;;;;;;;1.35;0.70;;;;;;;1.71;100.00;97321.38;5013434;28;20041;-82
2021/01/09 01:25:28;;;;;;;0.68;0.68;;;;;;;1.79;100.00;97329.91;5029905;28;20156;-81
2021/01/09 01:27:54;;;;;;;1.95;1.55;;;;;;;1.77;100.00;97331.75;5033590;28;20021;-81
2021/01/09 01:30:19;;;;;;;0.13;0.13;;;;;;;1.67;100.00;97341.69;5024901;28;20128;-82
2021/01/09 01:32:45;;;;;;;0.20;0.20;;;;;;;1.71;100.00;97343.34;5032960;28;20029;-81
2021/01/09 01:35:11;;;;;;;0.55;0.52;;;;;;;1.76;100.00;97348.47;5019259;28;20054;-82
2021/01/09 01:37:36;;;;;;;0.38;0.38;;;;;;;1.80;100.00;97342.19;5014173;28;20029;-82
2021/01/09 01:40:06;;;;;;;0.57;0.57;;;;;;;1.80;100.00;97336.91;5029066;28;20416;-82
2021/01/09 01:42:32;;;;;;;0.30;0.30;;;;;;;1.79;100.00;97349.22;5014690;28;20037;-81
2021/01/09 01:44:57;;;;;;;0.30;0.30;;;;;;;1.80;100.00;97342.19;5037100;28;20050;-81
2021/01/09 01:47:23;;;;;;;0.20;0.20;;;;;;;1.83;100.00;97345.59;5021326;28;20147;-82
2021/01/09 01:49:49;;;;;;;0.55;0.55;;;;;;;1.85;100.00;97337.63;5016504;28;20029;-82
2021/01/09 01:52:16;;;;;;;1.20;0.88;;;;;;;1.88;100.00;97337.53;5032906;28;20119;-82
2021/01/09 01:54:45;;;;;;;0.43;0.43;;;;;;;1.80;100.00;97327.25;5016229;28;20126;-81
2021/01/09 01:57:12;;;;;;;0.13;0.13;;;;;;;1.85;100.00;97333.22;5024723;28;20029;-82
2021/01/09 01:59:39;;;;;;;2.05;1.92;;;;;;;1.83;100.00;97342.97;5041847;28;20032;-81
2021/01/09 02:02:09;;;;;;;1.20;1.15;;;;;;;1.75;100.00;97349.38;5031971;28;20071;-82
2021/01/09 02:04:35;;;;;;;2.30;1.98;;;;;;;1.76;100.00;97343.19;5016098;28;20409;-82
2021/01/09 02:07:05;;;;;;;1.23;1.13;;;;;;;1.76;100.00;97330.88;5016909;28;20032;-83
2021/01/09 02:09:34;;;;;;;8.32;2.17;;;;;;;1.68;100.00;97327.63;5024252;28;20029;-82
2021/01/09 02:12:07;;;;;;;1.63;1.52;;;;;;;1.59;100.00;97331.41;5024471;28;20034;-83
2021/01/09 02:14:41;;;;;;;0.80;0.80;;;;;;;1.64;100.00;97324.22;5048552;28;20140;-83
2021/01/09 02:17:07;;;;;;;4.30;2.17;;;;;;;1.76;100.00;97327.38;5053638;28;20397;-82
2021/01/09 02:19:39;;;;;;;2.63;1.55;;;;;;;1.81;100.00;97333.38;5028048;28;20022;-82
2021/01/09 02:22:06;;;;;;;1.10;0.82;;;;;;;1.77;100.00;97340.50;5012272;28;20130;-82
2021/01/09 02:24:32;;;;;;;1.63;1.52;;;;;;;1.79;100.00;97329.91;5035781;28;20025;-82
2021/01/09 02:26:58;;;;;;;0.75;0.68;;;;;;;1.82;100.00;97330.69;5016227;28;20127;-82
2021/01/09 02:29:24;;;;;;;1.00;0.93;;;;;;;1.87;100.00;97323.50;5024347;28;20039;-82
2021/01/09 02:32:02;;;;;;;1.67;1.42;;;;;;;1.89;100.00;97336.63;5015479;28;20036;-81
2021/01/09 02:34:33;;;;;;;0.65;0.65;;;;;;;1.87;100.00;97333.19;5015460;28;20436;-82
2021/01/09 02:36:59;;;;;;;1.00;1.00;;;;;;;1.87;100.00;97323.50;5026295;28;20036;-82
2021/01/09 02:39:25;;;;;;;8.85;2.00;;;;;;;1.92;100.00;97326.00;5035411;28;20484;-82
2021/01/09 02:41:51;;;;;;;2.05;1.08;;;;;;;1.89;100.00;97328.72;5035405;28;20112;-82
2021/01/09 02:44:17;;;;;;;4.63;2.45;;;;;;;1.95;100.00;97341.72;5022130;28;20033;-82
2021/01/09 02:46:42;;;;;;;5.80;2.72;;;;;;;1.93;100.00;97344.41;5041968;28;20052;-75
2021/01/09 02:49:08;;;;;;;2.13;1.30;;;;;;;1.91;100.00;97333.03;5040257;28;20033;-82
2021/01/09 02:51:34;;;;;;;1.27;1.20;;;;;;;1.92;100.00;97331.25;5031125;28;20033;-82
2021/01/09 02:54:00;;;;;;;1.35;1.25;;;;;;;1.93;100.00;97340.91;5015792;28;20043;-82
2021/01/09 02:56:26;;;;;;;1.42;1.10;;;;;;;1.87;100.00;97347.25;5021350;28;20024;-82
2021/01/09 02:58:51;;;;;;;0.60;0.57;;;;;;;1.87;100.00;97333.19;5042043;28;20464;-82
2021/01/09 03:01:17;;;;;;;3.50;1.95;;;;;;;1.87;100.00;97333.19;5015283;28;20052;-82
2021/01/09 03:03:42;;;;;;;1.73;1.42;;;;;;;1.92;100.00;97342.69;5031578;28;20021;-82
2021/01/09 03:06:08;;;;;;;0.90;0.90;;;;;;;1.87;100.00;97349.00;5034835;28;20024;-82
2021/01/09 03:08:34;;;;;;;3.58;2.47;;;;;;;1.90;100.00;97347.16;5019727;28;20033;-82
2021/01/09 03:10:59;;;;;;;4.45;1.65;;;;;;;1.92;100.00;97347.09;5025067;28;20033;-82
2021/01/09 03:13:25;;;;;;;2.47;1.75;;;;;;;1.88;100.00;97345.44;5034758;28;20099;-82
2021/01/09 03:15:50;;;;;;;3.35;3.05;;;;;;;1.91;100.00;97355.91;5033625;28;20472;-82
2021/01/09 03:18:16;;;;;;;5.78;2.88;;;;;;;1.86;100.00;97352.53;5015013;28;20460;-82
2021/01/09 03:20:41;;;;;;;5.13;2.92;;;;;;;1.89;100.00;97347.19;5014738;28;20124;-82
2021/01/09 03:23:07;;;;;;;8.90;2.40;;;;;;;1.92;100.00;97349.72;5033950;28;20037;-82
2021/01/09 03:25:33;;;;;;;4.88;1.25;;;;;;;1.90;100.00;97349.78;5026415;28;20032;-82
2021/01/09 03:27:58;;;;;;;1.90;1.50;;;;;;;1.75;100.00;97350.25;5034296;28;20078;-82
2021/01/09 03:30:24;;;;;;;4.60;2.55;;;;;;;1.77;100.00;97350.19;5046074;28;20025;-83
2021/01/09 03:32:50;;;;;;;2.05;1.85;;;;;;;1.78;100.00;97355.44;5022991;28;20035;-82
2021/01/09 03:35:15;;;;;;;2.17;1.83;;;;;;;1.79;100.00;97348.38;5046990;28;20038;-82
2021/01/09 03:37:41;;;;;;;1.88;1.73;;;;;;;1.81;100.00;97349.19;5039149;28;20217;-82
2021/01/09 03:40:07;;;;;;;1.20;1.15;;;;;;;1.89;100.00;97358.59;5014371;28;20512;-82
2021/01/09 03:42:33;;;;;;;0.75;0.75;;;;;;;1.86;100.00;97350.78;5014650;28;20480;-82
2021/01/09 03:44:59;;;;;;;0.77;0.77;;;;;;;1.85;100.00;97367.50;5031168;28;20033;-82
2021/01/09 03:47:25;;;;;;;6.07;3.78;;;;;;;1.87;100.00;97367.47;5014560;28;20393;-82
2021/01/09 03:49:50;;;;;;;1.55;1.45;;;;;;;1.84;100.00;97357.88;5014277;28;20021;-82
2021/01/09 03:52:16;;;;;;;1.27;1.15;;;;;;;1.92;100.00;97363.78;5014224;28;20021;-82
2021/01/09 03:54:42;;;;;;;1.42;1.33;;;;;;;1.90;100.00;97373.50;5030732;28;20456;-82
2021/01/09 03:57:08;;;;;;;5.13;2.78;;;;;;;1.88;100.00;97370.03;5014537;28;20030;-82
2021/01/09 03:59:33;;;;;;;1.25;1.23;;;;;;;1.82;100.00;97362.31;5014343;28;20025;-82
2021/01/09 04:01:59;;;;;;;1.85;1.75;;;;;;;1.88;100.00;97385.00;5014319;28;20083;-82
2021/01/09 04:04:24;;;;;;;2.20;1.10;;;;;;;1.89;100.00;97379.69;5026698;28;20028;-82
2021/01/09 04:06:50;;;;;;;0.75;0.75;;;;;;;1.89;100.00;97379.69;5033601;28;20036;-82
2021/01/09 04:09:16;;;;;;;4.07;1.65;;;;;;;1.88;100.00;97382.34;5033580;28;20049;-82
2021/01/09 04:11:41;;;;;;;1.13;1.13;;;;;;;1.89;100.00;97392.88;5027292;28;20025;-82
2021/01/09 04:14:07;;;;;;;4.88;2.22;;;;;;;1.92;100.00;97399.81;5013935;28;20120;-82
2021/01/09 04:16:36;;;;;;;1.45;1.27;;;;;;;1.93;100.00;97396.28;5014034;28;20036;-82
2021/01/09 04:19:02;;;;;;;0.38;0.38;;;;;;;1.97;100.00;97419.88;5047970;28;20477;-82
2021/01/09 04:21:27;;;;;;;2.85;0.93;;;;;;;1.94;100.00;97421.75;5050501;28;20021;-82
2021/01/09 04:23:53;;;;;;;1.55;0.98;;;;;;;1.88;100.00;97429.81;5025762;28;20484;-82
2021/01/09 04:26:19;;;;;;;2.05;1.45;;;;;;;1.93;100.00;97423.53;5047219;28;20404;-82
2021/01/09 04:28:44;;;;;;;1.10;0.73;;;;;;;1.90;100.00;97428.03;5014227;28;20408;-82
2021/01/09 04:31:13;;;;;;;1.38;1.27;;;;;;;1.90;100.00;97435.94;5023837;28;20090;-82
2021/01/09 04:33:39;;;;;;;1.30;1.25;;;;;;;1.93;100.00;97430.56;5033957;28;20029;-82
2021/01/09 04:36:05;;;;;;;1.08;1.08;;;;;;;1.95;100.00;97426.09;5049011;28;20114;-82
2021/01/09 04:38:30;;;;;;;1.58;1.20;;;;;;;2.00;100.00;97440.03;5014012;28;20025;-81
2021/01/09 04:40:58;;;;;;;1.17;1.08;;;;;;;1.94;100.00;97440.22;5046860;28;20067;-82
2021/01/09 04:43:24;;;;;;;0.70;0.70;;;;;;;1.86;100.00;97445.69;5017998;28;20033;-81
2021/01/09 04:45:49;;;;;;;6.13;1.75;;;;;;;1.90;100.00;97444.72;5033891;28;20108;-82
2021/01/09 04:48:16;;;;;;;1.48;1.38;;;;;;;1.90;100.00;97452.63;5022754;28;20608;-82
2021/01/09 04:50:42;;;;;;;1.25;1.20;;;;;;;1.95;100.00;97449.84;5022311;28;20484;-82
2021/01/09 04:53:08;;;;;;;5.00;2.25;;;;;;;1.91;100.00;97445.53;5031402;28;20064;-82
2021/01/09 04:55:37;;;;;;;3.88;1.70;;;;;;;1.92;100.00;97463.97;5020947;28;20517;-82
2021/01/09 04:58:02;;;;;;;2.97;2.28;;;;;;;1.89;100.00;97471.97;5022169;28;20489;-82
2021/01/09 05:00:28;;;;;;;1.85;1.50;;;;;;;1.89;100.00;97468.47;5033753;28;20032;-82
2021/01/09 05:02:55;;;;;;;4.25;3.17;;;;;;;1.87;100.00;97470.31;5025455;28;20484;-82
2021/01/09 05:05:20;;;;;;;1.77;1.67;;;;;;;1.91;100.00;97474.56;5039067;28;20037;-82
2021/01/09 05:07:46;;;;;;;1.45;1.35;;;;;;;1.87;100.00;97470.31;5013850;28;20025;-82
2021/01/09 05:10:12;;;;;;;2.92;1.52;;;;;;;1.76;100.00;97467.97;5013502;28;20073;-82
2021/01/09 05:12:40;;;;;;;1.02;1.02;;;;;;;1.85;100.00;97477.38;5018352;28;20404;-82
2021/01/09 05:15:06;;;;;;;1.83;1.73;;;;;;;1.88;100.00;97464.09;5016762;28;20029;-82
2021/01/09 05:17:37;;;;;;;3.83;2.33;;;;;;;1.71;100.00;97463.72;5016444;28;20025;-82
2021/01/09 05:20:05;;;;;;;2.10;1.95;;;;;;;1.75;100.00;97473.28;5034137;28;20041;-82
2021/01/09 05:22:31;;;;;;;2.03;1.92;;;;;;;1.69;100.00;97471.69;5034580;28;20025;-83
2021/01/09 05:24:57;;;;;;;2.42;2.25;;;;;;;1.69;100.00;97470.81;5024540;28;20086;-83
2021/01/09 05:27:23;;;;;;;2.72;1.55;;;;;;;1.72;100.00;97478.66;5026102;28;20386;-83
2021/01/09 05:29:51;;;;;;;2.08;1.88;;;;;;;1.69;100.00;97482.25;5033792;28;20033;-83
2021/01/09 05:32:17;;;;;;;5.85;2.70;;;;;;;1.61;100.00;97479.81;5033551;28;20028;-82
2021/01/09 05:34:47;;;;;;;2.10;1.58;;;;;;;1.68;100.00;97493.69;5047205;28;20045;-82
2021/01/09 05:37:23;;;;;;;2.35;2.08;;;;;;;1.70;100.00;97501.53;5036973;28;20036;-82
2021/01/09 05:39:56;;;;;;;2.35;1.60;;;;;;;1.69;100.00;97498.06;5031189;28;20083;-82
2021/01/09 05:42:26;;;;;;;3.20;2.05;;;;;;;1.68;100.00;97506.00;5033837;28;20425;-82
2021/01/09 05:44:54;;;;;;;1.55;1.45;;;;;;;1.72;100.00;97513.78;5033467;28;20064;-82
2021/01/09 05:47:27;;;;;;;1.65;1.27;;;;;;;1.81;100.00;97504.75;5034804;28;20087;-82
2021/01/09 05:50:00;;;;;;;1.67;1.58;;;;;;;1.86;100.00;97516.91;5022342;28;20034;-82
2021/01/09 05:52:27;;;;;;;2.78;1.23;;;;;;;1.88;100.00;97524.75;5035385;28;20580;-82
2021/01/09 05:54:59;;;;;;;1.95;1.42;;;;;;;1.86;100.00;97540.63;5036779;28;20028;-81
2021/01/09 05:57:29;;;;;;;1.50;1.40;;;;;;;1.85;100.00;97535.38;5034204;28;20029;-82
2021/01/09 06:00:00;;;;;;;1.90;1.73;;;;;;;1.91;100.00;97548.38;5016627;28;20033;-82
2021/01/09 06:02:26;;;;;;;4.20;2.53;;;;;;;1.92;100.00;97545.72;5043380;28;20104;-82
2021/01/09 06:04:59;;;;;;;4.13;2.15;;;;;;;1.93;100.00;97549.22;5053315;28;20095;-82
2021/01/09 06:07:26;;;;;;;3.90;2.42;;;;;;;1.91;100.00;97543.13;5018138;28;20030;-82
2021/01/09 06:10:04;;;;;;;2.08;1.70;;;;;;;1.96;100.00;97555.28;5024705;28;20121;-83
2021/01/09 06:12:32;;;;;;;3.15;2.55;;;;;;;1.82;100.00;97530.19;5019446;28;20029;-82
2021/01/09 06:15:03;;;;;;;7.80;6.65;;;;;;;1.90;100.00;97549.31;5036281;28;20025;-83
2021/01/09 06:17:30;;;;;;;5.20;4.78;;;;;;;1.90;100.00;97542.28;5025359;28;20038;-82
2021/01/09 06:19:56;;;;;;;19.27;10.00;;;;;;;1.92;100.00;97542.22;5016414;28;20410;-83
2021/01/09 06:22:26;;;;;;;7.95;5.22;;;;;;;1.94;100.00;97550.97;5033625;28;20524;-83
2021/01/09 06:24:52;;;;;;;17.52;4.10;;;;;;;2.00;100.00;97548.16;5046727;28;20501;-83
2021/01/09 06:27:22;;;;;;;2.08;1.98;;;;;;;1.88;100.00;97544.06;5015683;28;20032;-83
2021/01/09 06:29:49;;;;;;;7.45;5.68;;;;;;;1.90;100.00;97560.75;5022437;28;20025;-83
2021/01/09 06:32:18;;;;;;;11.10;7.40;;;;;;;1.99;100.00;97559.59;5029296;28;20120;-81
2021/01/09 06:34:44;;;;;;;8.13;5.45;;;;;;;2.04;100.00;97565.59;5023899;28;20045;-81
2021/01/09 06:37:09;;;;;;;4.97;3.90;;;;;;;2.03;100.00;97566.53;5023844;28;20080;-81
2021/01/09 06:39:37;;;;;;;9.80;4.57;;;;;;;2.09;100.00;97582.19;5015847;28;20033;-82
2021/01/09 06:42:07;;;;;;;4.75;3.70;;;;;;;2.16;100.00;97579.31;5015701;28;20030;-82
2021/01/09 06:44:33;;;;;;;2.15;1.95;;;;;;;2.21;100.00;97592.41;5015486;28;20029;-82
2021/01/09 06:46:58;;;;;;;2.55;2.17;;;;;;;2.17;100.00;97590.75;5015678;28;20021;-83
2021/01/09 06:49:28;;;;;;;6.28;3.10;;;;;;;2.17;100.00;97586.34;5032594;28;20371;-83
2021/01/09 06:52:01;;;;;;;2.60;2.17;;;;;;;2.11;100.00;97601.47;5047044;28;20025;-84
2021/01/09 06:54:39;;;;;;;3.35;2.47;;;;;;;2.15;100.00;97603.13;5017030;28;20047;-82
2021/01/09 06:57:05;;;;;;;5.90;2.00;;;;;;;2.24;100.00;97605.50;5052020;28;20033;-82
2021/01/09 06:59:55;;;;;;;6.07;4.80;;;;;;;2.14;100.00;97610.16;5043709;28;20693;-82
2021/01/09 07:02:22;;;;;;;15.57;9.63;;;;;;;2.19;100.00;97615.31;5033643;28;20124;-82
2021/01/09 07:05:02;;;;;;;16.17;10.55;;;;;;;2.18;100.00;97616.22;5035257;28;20396;-82
2021/01/09 07:07:37;;;;;;;18.23;9.35;;;;;;;2.13;100.00;97623.38;5018200;28;20032;-84
2021/01/09 07:10:16;;;;;;;19.48;12.15;;;;;;;2.20;100.00;97635.50;5048739;28;20033;-84
2021/01/09 07:13:09;;;;;;;9.93;8.23;;;;;;;2.24;100.00;97629.25;5028506;28;20039;-82
2021/01/09 07:15:36;;;;;;;;;;;;;;;2.30;100.00;97639.63;4992894;28;20049;-83
2021/01/09 07:18:08;;;;;;;5.95;4.90;;;;;;;2.32;100.00;97647.50;5013768;28;19920;-76
2021/01/09 07:20:51;;;;;;;19.63;6.32;;;;;;;2.25;100.00;97636.22;5029231;28;20039;-85
2021/01/09 07:23:19;;;;;;;6.80;3.85;;;;;;;2.34;100.00;97657.09;5055086;28;20117;-84
2021/01/09 07:25:45;;;;;;;7.45;4.32;;;;;;;2.38;100.00;97653.47;5032031;28;20372;-83
2021/01/09 07:28:17;;;;;;;5.85;4.88;;;;;;;2.56;100.00;97658.22;5035443;28;20040;-83
2021/01/09 07:30:44;;;;;;;6.38;3.45;;;;;;;2.53;100.00;97668.00;5035281;28;20037;-84
2021/01/09 07:33:13;;;;;;;3.28;2.70;;;;;;;2.46;100.00;97662.03;5019182;28;20045;-83
2021/01/09 07:35:44;;;;;;;5.15;3.65;;;;;;;2.49;100.00;97677.78;5032995;28;20044;-83
2021/01/09 07:38:10;;;;;;;3.13;2.38;;;;;;;2.62;100.00;97684.44;5033102;28;20522;-83
2021/01/09 07:40:45;;;;;;;2.97;2.50;;;;;;;2.68;100.00;97688.69;5028703;28;20115;-85
2021/01/09 07:43:32;;;;;;;7.05;4.57;;;;;;;2.71;100.00;97684.19;5044314;28;20032;-83
2021/01/09 07:45:59;;;;;;;3.83;3.17;;;;;;;2.64;100.00;97684.41;5048690;28;20090;-82
2021/01/09 07:48:31;;;;;;;4.95;3.33;;;;;;;2.70;100.00;97679.84;5041108;28;20025;-82
2021/01/09 07:50:56;;;;;;;3.80;2.15;;;;;;;2.88;100.00;97690.75;5027008;28;20057;-83
2021/01/09 07:53:27;;;;;;;6.40;3.35;;;;;;;2.88;100.00;97680.19;5029127;28;20064;-84
2021/01/09 07:55:53;;;;;;;1.85;1.75;;;;;;;2.87;100.00;97679.31;5024146;28;20493;-82
2021/01/09 07:58:19;;;;;;;1.88;1.58;;;;;;;3.07;100.00;97691.94;5032302;28;20033;-85
2021/01/09 08:00:46;;;;;;;3.80;1.48;;;;;;;3.19;99.56;97683.66;5016173;28;20025;-82
2021/01/09 08:03:13;;;;;;;2.53;2.33;;;;;;;3.16;99.95;97687.25;5025405;28;20248;-83
2021/01/09 08:05:39;;;;;;;4.70;2.45;;;;;;;3.16;100.00;97694.31;5025728;28;20028;-83
2021/01/09 08:08:05;;;;;;;5.57;3.95;;;;;;;3.07;99.65;97691.94;5050089;28;20021;-83
2021/01/09 08:10:34;;;;;;;3.25;2.95;;;;;;;3.39;97.32;97697.09;5032852;28;20025;-83
2021/01/09 08:13:07;;;;;;;4.85;3.50;;;;;;;3.50;96.52;97689.72;5019747;28;20039;-83
2021/01/09 08:15:34;;;;;;;6.95;3.58;;;;;;;3.59;96.69;97692.06;5022689;28;20500;-83
2021/01/09 08:18:01;;;;;;;4.70;4.25;;;;;;;3.78;95.53;97702.91;5027497;28;20033;-84
2021/01/09 08:20:27;;;;;;;4.40;3.78;;;;;;;3.75;95.89;97701.22;5020742;28;20033;-83
2021/01/09 08:22:56;;;;;;;4.30;3.90;;;;;;;3.83;95.60;97701.84;5020672;28;20036;-83
2021/01/09 08:25:23;;;;;;;3.45;2.00;;;;;;;3.90;94.91;97706.94;5019141;28;20070;-83
2021/01/09 08:27:54;;;;;;;4.53;3.92;;;;;;;3.75;95.19;97703.84;5023511;28;20056;-83
2021/01/09 08:30:27;;;;;;;14.60;6.55;;;;;;;3.83;94.48;97696.56;5032230;28;20509;-84
2021/01/09 08:33:12;;;;;;;7.65;5.32;;;;;;;4.07;94.24;97701.94;5028924;28;20926;-84
2021/01/09 08:35:40;;;;;;;3.22;2.75;;;;;;;3.93;93.25;97696.25;5028456;28;20052;-84
2021/01/09 08:38:08;;;;;;;4.25;2.53;;;;;;;3.62;93.77;97697.25;5026807;28;20028;-84
2021/01/09 08:40:36;;;;;;;2.53;2.33;;;;;;;3.53;95.16;97700.19;5049489;28;20041;-83
2021/01/09 08:43:10;;;;;;;6.68;3.33;;;;;;;3.47;94.93;97713.59;5033786;28;20024;-84
2021/01/09 08:45:47;;;;;;;3.72;2.25;;;;;;;3.70;95.98;97716.38;5015357;28;20037;-83
2021/01/09 08:48:20;;;;;;;3.30;2.72;;;;;;;4.05;95.20;97707.28;5017302;28;20464;-83
2021/01/09 08:50:52;;;;;;;2.80;2.55;;;;;;;4.39;93.08;97712.28;5036555;28;20033;-83
2021/01/09 08:53:18;;;;;;;8.30;6.60;;;;;;;4.56;90.19;97701.97;5046709;28;20033;-83
2021/01/09 08:55:43;;;;;;;3.03;1.48;;;;;;;4.86;88.86;97708.78;5050482;28;20390;-83
2021/01/09 08:58:11;;;;;;;6.72;3.72;;;;;;;4.87;88.99;97705.22;5021430;28;20040;-85
2021/01/09 09:00:37;;;;;;;2.13;1.42;;;;;;;4.93;89.28;97704.13;5019001;28;20340;-84
2021/01/09 09:03:05;;;;;;;2.22;1.75;;;;;;;5.14;87.86;97713.06;5044864;28;20047;-85
2021/01/09 09:05:31;;;;;;;1.83;1.20;;;;;;;5.18;87.42;97719.97;5020290;28;20119;-83
2021/01/09 09:07:57;;;;;;;2.63;1.63;;;;;;;4.84;86.30;97705.34;5026057;28;20069;-85
2021/01/09 09:10:28;;;;;;;0.80;0.80;;;;;;;4.76;88.62;97707.41;5023080;28;20036;-84
2021/01/09 09:12:53;;;;;;;4.30;1.75;;;;;;;4.93;86.19;97702.34;5015381;28;20033;-85
2021/01/09 09:15:29;;;;;;;4.32;3.33;;;;;;;5.23;85.45;97708.28;5030991;28;20485;-85
2021/01/09 09:17:55;;;;;;;7.20;3.17;;;;;;;5.04;84.10;97701.09;5018970;28;20481;-85
2021/01/09 09:20:24;;;;;;;4.10;3.22;;;;;;;5.15;85.17;97705.06;5015497;28;20028;-84
2021/01/09 09:22:51;;;;;;;5.72;2.20;;;;;;;5.33;85.09;97703.47;5014865;28;20025;-84
2021/01/09 09:25:52;;;;;;;4.68;2.55;;;;;;;5.19;85.75;97700.50;5016500;28;20033;-85
2021/01/09 09:28:17;;;;;;;1.08;1.08;;;;;;;5.13;85.50;97696.31;5010131;28;20041;-85
2021/01/09 09:30:43;;;;;;;2.60;1.85;;;;;;;4.84;87.67;97694.75;5030081;28;20462;-85
2021/01/09 09:33:13;;;;;;;1.80;1.70;;;;;;;4.87;88.33;97696.41;5032706;28;20442;-84
2021/01/09 09:35:40;;;;;;;3.05;1.63;;;;;;;4.86;87.44;97695.53;5028182;28;20049;-85
2021/01/09 09:38:06;;;;;;;3.28;2.05;;;;;;;4.47;89.09;97699.63;5019690;28;20075;-85
2021/01/09 09:40:35;;;;;;;6.50;3.53;;;;;;;4.47;90.05;97690.81;5027021;28;20127;-85
2021/01/09 09:43:19;;;;;;;3.50;2.22;;;;;;;4.79;90.47;97690.53;5032159;28;20040;-84
2021/01/09 09:46:04;;;;;;;6.97;4.15;;;;;;;4.60;89.43;97690.34;5025844;28;20028;-84
2021/01/09 09:48:37;;;;;;;6.60;3.50;;;;;;;4.70;90.66;97691.75;5026164;28;20084;-83
2021/01/09 09:51:10;;;;;;;7.82;3.13;;;;;;;4.76;90.18;97704.78;5030207;28;20052;-83
2021/01/09 09:53:38;;;;;;;7.13;3.63;;;;;;;4.72;90.25;97699.63;5014712;28;20496;-85
2021/01/09 09:56:14;;;;;;;11.13;8.15;;;;;;;4.75;91.24;97695.09;5031495;28;20028;-85
2021/01/09 09:58:40;;;;;;;4.30;3.42;;;;;;;4.93;88.89;97683.81;5030837;28;20028;-85
2021/01/09 10:01:35;;;;;;;4.72;3.80;;;;;;;5.00;87.02;97689.75;5032110;28;20064;-85
2021/01/09 10:04:11;;;;;;;2.38;2.17;;;;;;;4.96;86.72;97681.94;5009058;28;20068;-86
2021/01/09 10:06:41;;;;;;;6.38;3.05;;;;;;;4.88;85.93;97672.53;5036050;28;20029;-84
2021/01/09 10:09:17;;;;;;;7.18;2.60;;;;;;;5.14;86.59;97687.41;5026419;28;20035;-85
2021/01/09 10:11:44;;;;;;;3.95;2.92;;;;;;;5.17;85.69;97675.84;5022687;28;20103;-85
2021/01/09 10:14:16;;;;;;;5.80;1.60;;;;;;;5.15;85.89;97669.72;5023249;28;20472;-86
2021/01/09 10:16:42;;;;;;;2.05;1.55;;;;;;;4.85;86.05;97659.38;5027408;28;20029;-84
2021/01/09 10:19:11;;;;;;;2.05;1.95;;;;;;;4.77;87.49;97671.16;5023584;28;20063;-84
2021/01/09 10:21:37;;;;;;;0.85;0.85;;;;;;;4.58;89.90;97676.31;5027894;28;20028;-85
2021/01/09 10:24:03;;;;;;;3.15;2.67;;;;;;;4.66;89.21;97666.28;5043264;28;20033;-86
2021/01/09 10:26:31;;;;;;;6.13;4.22;;;;;;;4.78;88.06;97662.31;5007404;28;20472;-85
2021/01/09 10:28:57;;;;;;;5.50;3.63;;;;;;;4.80;86.85;97674.56;5022688;28;20025;-84
2021/01/09 10:31:30;;;;;;;10.02;2.97;;;;;;;4.66;87.25;97676.00;5021958;28;20037;-83
2021/01/09 10:33:55;;;;;;;7.97;4.15;;;;;;;4.74;88.64;97671.28;5039348;28;20039;-84
2021/01/09 10:36:25;;;;;;;7.00;3.72;;;;;;;4.51;90.71;97666.84;5033743;28;20119;-85
2021/01/09 10:38:51;;;;;;;8.02;3.72;;;;;;;4.59;91.21;97667.41;5033558;28;20063;-83
2021/01/09 10:41:17;;;;;;;4.80;3.67;;;;;;;4.52;92.35;97673.88;5031942;28;20040;-85
2021/01/09 10:43:42;;;;;;;6.07;4.30;;;;;;;4.69;91.92;97673.25;5026976;28;20037;-85
2021/01/09 10:46:37;;;;;;;7.18;4.15;;;;;;;4.66;92.31;97676.88;5025758;28;20440;-86
2021/01/09 10:49:03;;;;;;;3.25;2.40;;;;;;;4.85;91.35;97672.63;4991807;28;20452;-83
2021/01/09 10:51:31;;;;;;;4.50;2.75;;;;;;;4.81;91.40;97670.13;5031125;28;20438;-86
2021/01/09 10:53:57;;;;;;;7.97;5.63;;;;;;;4.40;91.56;97671.63;5047552;28;20031;-85
2021/01/09 10:56:22;;;;;;;7.22;4.68;;;;;;;4.00;94.17;97666.03;5015318;28;20116;-85
2021/01/09 10:58:48;;;;;;;6.60;4.53;;;;;;;3.97;95.47;97660.84;5044724;28;20033;-85
2021/01/09 11:01:14;;;;;;;8.32;4.15;;;;;;;4.01;95.75;97662.44;5028407;28;20029;-85
2021/01/09 11:03:43;;;;;;;2.78;2.35;;;;;;;3.69;96.41;97672.31;5033510;28;20078;-85
2021/01/09 11:06:09;;;;;;;10.85;3.78;;;;;;;3.86;97.27;97677.06;5031984;28;20549;-75
2021/01/09 11:08:35;;;;;;;6.50;3.65;;;;;;;4.06;95.71;97656.06;5042920;28;20104;-85
2021/01/09 11:11:03;;;;;;;2.88;1.40;;;;;;;4.21;94.58;97644.97;5031592;28;20108;-84
2021/01/09 11:13:36;;;;;;;0.95;0.95;;;;;;;4.17;92.21;97645.13;5020010;28;20033;-85
2021/01/09 11:16:05;;;;;;;2.45;2.25;;;;;;;4.18;92.52;97652.16;5005357;28;20095;-85
2021/01/09 11:18:31;;;;;;;1.75;1.15;;;;;;;4.13;93.06;97656.72;5012731;28;20473;-84
2021/01/09 11:20:56;;;;;;;0.60;0.60;;;;;;;4.19;92.16;97673.25;5040153;28;20049;-84
2021/01/09 11:23:25;;;;;;;2.08;1.52;;;;;;;4.06;93.79;97679.88;5034225;28;20145;-84
2021/01/09 11:26:15;;;;;;;2.47;2.20;;;;;;;4.07;93.66;97675.47;5044265;28;20084;-86
2021/01/09 11:28:40;;;;;;;1.60;1.38;;;;;;;3.87;92.58;97622.38;5027870;28;20028;-83
2021/01/09 11:31:09;;;;;;;5.55;4.00;;;;;;;4.06;92.43;97671.13;5016867;28;20098;-84
2021/01/09 11:34:16;;;;;;;4.43;2.40;;;;;;;4.03;92.86;97656.19;5021844;28;20034;-85
2021/01/09 11:36:46;;;;;;;6.05;4.90;;;;;;;4.16;91.42;97661.91;4935141;29;20039;-83
2021/01/09 11:39:12;;;;;;;2.65;2.22;;;;;;;4.29;92.38;97695.84;5004022;28;20132;-83
2021/01/09 11:41:42;;;;;;;2.67;2.05;;;;;;;4.19;92.89;97667.09;5025654;28;20048;-86